sensor_id;sensor_type;location;lat;lon;timestamp;temperature;humidity
678;DHT22;321;48.814;9.132;2023-04-08T00:00:36;10.40;99.90
678;DHT22;321;48.814;9.132;2023-04-08T00:03:02;10.40;99.90
678;DHT22;321;48.814;9.132;2023-04-08T00:05:27;10.50;99.90
678;DHT22;321;48.814;9.132;2023-04-08T00:07:53;10.50;99.90
678;DHT22;321;48.814;9.132;2023-04-08T00:10:19;10.50;99.90
678;DHT22;321;48.814;9.132;2023-04-08T00:12:45;10.40;99.90
678;DHT22;321;48.814;9.132;2023-04-08T00:15:11;10.40;99.90
678;DHT22;321;48.814;9.132;2023-04-08T00:17:37;10.40;99.90
678;DHT22;321;48.814;9.132;2023-04-08T00:20:02;10.40;99.90
678;DHT22;321;48.814;9.132;2023-04-08T00:22:28;10.40;99.90
678;DHT22;321;48.814;9.132;2023-04-08T00:24:54;10.50;99.90
678;DHT22;321;48.814;9.132;2023-04-08T00:27:20;10.40;99.90
678;DHT22;321;48.814;9.132;2023-04-08T00:29:45;10.50;99.90
678;DHT22;321;48.814;9.132;2023-04-08T00:32:11;10.30;99.90
678;DHT22;321;48.814;9.132;2023-04-08T00:34:37;10.20;99.90
678;DHT22;321;48.814;9.132;2023-04-08T00:37:03;10.10;99.90
678;DHT22;321;48.814;9.132;2023-04-08T00:39:28;10.30;99.90
678;DHT22;321;48.814;9.132;2023-04-08T00:41:54;10.20;99.90
678;DHT22;321;48.814;9.132;2023-04-08T00:44:20;10.30;99.90
678;DHT22;321;48.814;9.132;2023-04-08T00:46:46;10.40;99.90
678;DHT22;321;48.814;9.132;2023-04-08T00:49:12;10.30;99.90
678;DHT22;321;48.814;9.132;2023-04-08T00:51:38;10.40;99.90
678;DHT22;321;48.814;9.132;2023-04-08T00:54:04;10.30;99.90
678;DHT22;321;48.814;9.132;2023-04-08T00:56:31;10.30;99.90
678;DHT22;321;48.814;9.132;2023-04-08T00:58:59;10.20;99.90
678;DHT22;321;48.814;9.132;2023-04-08T01:04:30;10.20;99.90
678;DHT22;321;48.814;9.132;2023-04-08T01:09:34;10.30;99.90
678;DHT22;321;48.814;9.132;2023-04-08T01:12:05;10.40;99.90
678;DHT22;321;48.814;9.132;2023-04-08T01:14:34;10.30;99.90
678;DHT22;321;48.814;9.132;2023-04-08T01:17:03;10.30;99.90
678;DHT22;321;48.814;9.132;2023-04-08T01:19:35;10.20;99.90
678;DHT22;321;48.814;9.132;2023-04-08T01:24:49;10.20;99.90
678;DHT22;321;48.814;9.132;2023-04-08T01:27:16;10.30;99.90
678;DHT22;321;48.814;9.132;2023-04-08T01:29:43;10.20;99.90
678;DHT22;321;48.814;9.132;2023-04-08T01:32:10;10.20;99.90
678;DHT22;321;48.814;9.132;2023-04-08T01:34:37;10.30;99.90
678;DHT22;321;48.814;9.132;2023-04-08T01:37:03;10.20;99.90
678;DHT22;321;48.814;9.132;2023-04-08T01:39:30;10.20;99.90
678;DHT22;321;48.814;9.132;2023-04-08T01:41:57;10.10;99.90
678;DHT22;321;48.814;9.132;2023-04-08T01:44:25;10.00;99.90
678;DHT22;321;48.814;9.132;2023-04-08T01:46:52;10.10;99.90
678;DHT22;321;48.814;9.132;2023-04-08T01:49:18;10.10;99.90
678;DHT22;321;48.814;9.132;2023-04-08T01:51:45;10.00;99.90
678;DHT22;321;48.814;9.132;2023-04-08T01:54:11;10.00;99.90
678;DHT22;321;48.814;9.132;2023-04-08T01:56:39;10.00;99.90
678;DHT22;321;48.814;9.132;2023-04-08T01:59:09;10.00;99.90
678;DHT22;321;48.814;9.132;2023-04-08T02:01:36;10.00;99.90
678;DHT22;321;48.814;9.132;2023-04-08T02:04:03;10.10;99.90
678;DHT22;321;48.814;9.132;2023-04-08T02:06:29;10.10;99.90
678;DHT22;321;48.814;9.132;2023-04-08T02:08:56;10.10;99.90
678;DHT22;321;48.814;9.132;2023-04-08T02:11:22;10.10;99.90
678;DHT22;321;48.814;9.132;2023-04-08T02:13:49;10.20;99.90
678;DHT22;321;48.814;9.132;2023-04-08T02:16:33;10.20;99.90
678;DHT22;321;48.814;9.132;2023-04-08T02:19:28;10.20;99.90
678;DHT22;321;48.814;9.132;2023-04-08T02:22:01;10.20;99.90
678;DHT22;321;48.814;9.132;2023-04-08T02:24:29;10.10;99.90
678;DHT22;321;48.814;9.132;2023-04-08T02:26:57;10.10;99.90
678;DHT22;321;48.814;9.132;2023-04-08T02:29:23;10.00;99.90
678;DHT22;321;48.814;9.132;2023-04-08T02:31:50;9.90;99.90
678;DHT22;321;48.814;9.132;2023-04-08T02:34:16;9.90;99.90
678;DHT22;321;48.814;9.132;2023-04-08T02:36:46;9.90;99.90
678;DHT22;321;48.814;9.132;2023-04-08T02:39:12;9.90;99.90
678;DHT22;321;48.814;9.132;2023-04-08T02:41:38;9.90;99.90
678;DHT22;321;48.814;9.132;2023-04-08T02:44:03;9.90;99.90
678;DHT22;321;48.814;9.132;2023-04-08T02:46:29;9.80;99.90
678;DHT22;321;48.814;9.132;2023-04-08T02:48:54;9.90;99.90
678;DHT22;321;48.814;9.132;2023-04-08T02:51:20;9.90;99.90
678;DHT22;321;48.814;9.132;2023-04-08T02:53:46;9.80;99.90
678;DHT22;321;48.814;9.132;2023-04-08T02:56:11;9.70;99.90
678;DHT22;321;48.814;9.132;2023-04-08T02:58:37;9.70;99.90
678;DHT22;321;48.814;9.132;2023-04-08T03:01:02;9.50;99.90
678;DHT22;321;48.814;9.132;2023-04-08T03:03:28;9.60;99.90
678;DHT22;321;48.814;9.132;2023-04-08T03:05:55;9.70;99.90
678;DHT22;321;48.814;9.132;2023-04-08T03:08:21;9.70;99.90
678;DHT22;321;48.814;9.132;2023-04-08T03:10:48;9.70;99.90
678;DHT22;321;48.814;9.132;2023-04-08T03:13:14;9.70;99.90
678;DHT22;321;48.814;9.132;2023-04-08T03:15:40;9.80;99.90
678;DHT22;321;48.814;9.132;2023-04-08T03:18:06;9.80;99.90
678;DHT22;321;48.814;9.132;2023-04-08T03:20:32;9.80;99.90
678;DHT22;321;48.814;9.132;2023-04-08T03:22:57;9.80;99.90
678;DHT22;321;48.814;9.132;2023-04-08T03:25:23;9.80;99.90
678;DHT22;321;48.814;9.132;2023-04-08T03:27:48;9.80;99.90
678;DHT22;321;48.814;9.132;2023-04-08T03:30:14;9.70;99.90
678;DHT22;321;48.814;9.132;2023-04-08T03:32:39;9.70;99.90
678;DHT22;321;48.814;9.132;2023-04-08T03:35:05;9.80;99.90
678;DHT22;321;48.814;9.132;2023-04-08T03:37:31;9.90;99.90
678;DHT22;321;48.814;9.132;2023-04-08T03:39:56;9.90;99.90
678;DHT22;321;48.814;9.132;2023-04-08T03:42:22;9.90;99.90
678;DHT22;321;48.814;9.132;2023-04-08T03:44:48;10.00;99.90
678;DHT22;321;48.814;9.132;2023-04-08T03:47:13;10.00;99.90
678;DHT22;321;48.814;9.132;2023-04-08T03:49:39;10.00;99.90
678;DHT22;321;48.814;9.132;2023-04-08T03:52:05;9.90;99.90
678;DHT22;321;48.814;9.132;2023-04-08T03:54:30;9.90;99.90
678;DHT22;321;48.814;9.132;2023-04-08T03:56:56;10.00;99.90
678;DHT22;321;48.814;9.132;2023-04-08T03:59:21;9.90;99.90
678;DHT22;321;48.814;9.132;2023-04-08T04:01:47;9.80;99.90
678;DHT22;321;48.814;9.132;2023-04-08T04:04:13;9.70;99.90
678;DHT22;321;48.814;9.132;2023-04-08T04:06:39;9.80;99.90
678;DHT22;321;48.814;9.132;2023-04-08T04:09:04;9.80;99.90
678;DHT22;321;48.814;9.132;2023-04-08T04:11:30;9.70;99.90
678;DHT22;321;48.814;9.132;2023-04-08T04:13:55;9.80;99.90
678;DHT22;321;48.814;9.132;2023-04-08T04:16:21;9.80;99.90
678;DHT22;321;48.814;9.132;2023-04-08T04:18:47;9.80;99.90
678;DHT22;321;48.814;9.132;2023-04-08T04:21:12;9.80;99.90
678;DHT22;321;48.814;9.132;2023-04-08T04:23:38;9.80;99.90
678;DHT22;321;48.814;9.132;2023-04-08T04:26:10;9.70;99.90
678;DHT22;321;48.814;9.132;2023-04-08T04:28:36;9.60;99.90
678;DHT22;321;48.814;9.132;2023-04-08T04:31:02;9.50;99.90
678;DHT22;321;48.814;9.132;2023-04-08T04:33:30;9.40;99.90
678;DHT22;321;48.814;9.132;2023-04-08T04:35:56;9.40;99.90
678;DHT22;321;48.814;9.132;2023-04-08T04:38:22;9.30;99.90
678;DHT22;321;48.814;9.132;2023-04-08T04:40:47;9.30;99.90
678;DHT22;321;48.814;9.132;2023-04-08T04:43:13;9.30;99.90
678;DHT22;321;48.814;9.132;2023-04-08T04:45:38;9.10;99.90
678;DHT22;321;48.814;9.132;2023-04-08T04:48:04;9.10;99.90
678;DHT22;321;48.814;9.132;2023-04-08T04:50:30;9.00;99.90
678;DHT22;321;48.814;9.132;2023-04-08T04:52:55;9.00;99.90
678;DHT22;321;48.814;9.132;2023-04-08T04:55:21;9.00;99.90
678;DHT22;321;48.814;9.132;2023-04-08T04:57:47;9.00;99.90
678;DHT22;321;48.814;9.132;2023-04-08T05:00:13;9.00;99.90
678;DHT22;321;48.814;9.132;2023-04-08T05:02:39;9.00;99.90
678;DHT22;321;48.814;9.132;2023-04-08T05:05:05;8.90;99.90
678;DHT22;321;48.814;9.132;2023-04-08T05:07:34;9.00;99.90
678;DHT22;321;48.814;9.132;2023-04-08T05:09:59;8.90;99.90
678;DHT22;321;48.814;9.132;2023-04-08T05:12:26;8.90;99.90
678;DHT22;321;48.814;9.132;2023-04-08T05:14:51;8.90;99.90
678;DHT22;321;48.814;9.132;2023-04-08T05:17:17;8.90;99.90
678;DHT22;321;48.814;9.132;2023-04-08T05:19:42;8.80;99.90
678;DHT22;321;48.814;9.132;2023-04-08T05:22:08;8.80;99.90
678;DHT22;321;48.814;9.132;2023-04-08T05:24:33;8.90;99.90
678;DHT22;321;48.814;9.132;2023-04-08T05:26:59;8.90;99.90
678;DHT22;321;48.814;9.132;2023-04-08T05:29:25;8.90;99.90
678;DHT22;321;48.814;9.132;2023-04-08T05:31:51;9.10;99.90
678;DHT22;321;48.814;9.132;2023-04-08T05:34:17;9.10;99.90
678;DHT22;321;48.814;9.132;2023-04-08T05:36:47;9.10;99.90
678;DHT22;321;48.814;9.132;2023-04-08T05:39:19;9.20;99.90
678;DHT22;321;48.814;9.132;2023-04-08T05:41:44;9.30;99.90
678;DHT22;321;48.814;9.132;2023-04-08T05:44:11;9.40;99.90
678;DHT22;321;48.814;9.132;2023-04-08T05:46:37;9.40;99.90
678;DHT22;321;48.814;9.132;2023-04-08T05:49:02;9.60;99.90
678;DHT22;321;48.814;9.132;2023-04-08T05:51:28;9.60;99.90
678;DHT22;321;48.814;9.132;2023-04-08T05:53:54;9.50;99.90
678;DHT22;321;48.814;9.132;2023-04-08T05:56:19;9.60;99.90
678;DHT22;321;48.814;9.132;2023-04-08T05:58:45;9.70;99.90
678;DHT22;321;48.814;9.132;2023-04-08T06:01:11;9.80;99.90
678;DHT22;321;48.814;9.132;2023-04-08T06:03:36;9.70;99.90
678;DHT22;321;48.814;9.132;2023-04-08T06:06:02;9.80;99.90
678;DHT22;321;48.814;9.132;2023-04-08T06:08:27;9.90;99.90
678;DHT22;321;48.814;9.132;2023-04-08T06:10:53;9.90;99.90
678;DHT22;321;48.814;9.132;2023-04-08T06:13:18;10.10;99.90
678;DHT22;321;48.814;9.132;2023-04-08T06:15:46;10.20;99.90
678;DHT22;321;48.814;9.132;2023-04-08T06:18:14;10.30;99.90
678;DHT22;321;48.814;9.132;2023-04-08T06:20:40;10.50;99.90
678;DHT22;321;48.814;9.132;2023-04-08T06:23:05;10.50;99.90
678;DHT22;321;48.814;9.132;2023-04-08T06:25:31;10.60;99.90
678;DHT22;321;48.814;9.132;2023-04-08T06:27:57;10.60;99.90
678;DHT22;321;48.814;9.132;2023-04-08T06:30:22;10.70;99.90
678;DHT22;321;48.814;9.132;2023-04-08T06:32:48;10.50;99.90
678;DHT22;321;48.814;9.132;2023-04-08T06:35:13;10.40;99.90
678;DHT22;321;48.814;9.132;2023-04-08T06:37:40;10.50;99.90
678;DHT22;321;48.814;9.132;2023-04-08T06:40:07;10.70;99.90
678;DHT22;321;48.814;9.132;2023-04-08T06:42:33;10.80;99.90
678;DHT22;321;48.814;9.132;2023-04-08T06:44:58;10.90;99.90
678;DHT22;321;48.814;9.132;2023-04-08T06:47:24;10.80;99.90
678;DHT22;321;48.814;9.132;2023-04-08T06:49:50;10.80;99.90
678;DHT22;321;48.814;9.132;2023-04-08T06:52:16;11.00;99.90
678;DHT22;321;48.814;9.132;2023-04-08T06:54:41;11.10;99.90
678;DHT22;321;48.814;9.132;2023-04-08T06:57:07;11.00;99.90
678;DHT22;321;48.814;9.132;2023-04-08T06:59:33;10.90;99.90
678;DHT22;321;48.814;9.132;2023-04-08T07:01:58;10.80;99.90
678;DHT22;321;48.814;9.132;2023-04-08T07:04:24;11.00;99.90
678;DHT22;321;48.814;9.132;2023-04-08T07:06:51;11.10;99.90
678;DHT22;321;48.814;9.132;2023-04-08T07:09:17;11.00;99.90
678;DHT22;321;48.814;9.132;2023-04-08T07:11:43;11.20;99.90
678;DHT22;321;48.814;9.132;2023-04-08T07:14:08;11.30;99.90
678;DHT22;321;48.814;9.132;2023-04-08T07:16:34;11.20;99.90
678;DHT22;321;48.814;9.132;2023-04-08T07:19:00;11.20;99.90
678;DHT22;321;48.814;9.132;2023-04-08T07:21:26;11.40;99.90
678;DHT22;321;48.814;9.132;2023-04-08T07:23:51;11.40;99.90
678;DHT22;321;48.814;9.132;2023-04-08T07:26:17;11.50;99.90
678;DHT22;321;48.814;9.132;2023-04-08T07:28:43;11.60;99.90
678;DHT22;321;48.814;9.132;2023-04-08T07:31:15;11.60;99.90
678;DHT22;321;48.814;9.132;2023-04-08T07:33:42;11.70;99.90
678;DHT22;321;48.814;9.132;2023-04-08T07:36:09;11.70;99.90
678;DHT22;321;48.814;9.132;2023-04-08T07:38:36;11.80;99.90
678;DHT22;321;48.814;9.132;2023-04-08T07:41:02;12.20;99.90
678;DHT22;321;48.814;9.132;2023-04-08T07:43:30;12.50;99.90
678;DHT22;321;48.814;9.132;2023-04-08T07:46:00;12.60;99.90
678;DHT22;321;48.814;9.132;2023-04-08T07:48:27;12.80;99.90
678;DHT22;321;48.814;9.132;2023-04-08T07:50:53;13.10;99.90
678;DHT22;321;48.814;9.132;2023-04-08T07:53:19;13.50;99.90
678;DHT22;321;48.814;9.132;2023-04-08T07:55:44;13.90;99.90
678;DHT22;321;48.814;9.132;2023-04-08T07:58:10;14.00;99.90
678;DHT22;321;48.814;9.132;2023-04-08T08:00:36;14.10;99.90
678;DHT22;321;48.814;9.132;2023-04-08T08:03:02;14.00;99.90
678;DHT22;321;48.814;9.132;2023-04-08T08:05:27;13.90;99.90
678;DHT22;321;48.814;9.132;2023-04-08T08:07:53;14.20;99.90
678;DHT22;321;48.814;9.132;2023-04-08T08:10:19;14.20;99.90
678;DHT22;321;48.814;9.132;2023-04-08T08:12:44;14.10;99.90
678;DHT22;321;48.814;9.132;2023-04-08T08:15:10;14.20;99.90
678;DHT22;321;48.814;9.132;2023-04-08T08:17:36;14.20;99.90
678;DHT22;321;48.814;9.132;2023-04-08T08:20:01;14.30;99.90
678;DHT22;321;48.814;9.132;2023-04-08T08:22:29;14.40;99.90
678;DHT22;321;48.814;9.132;2023-04-08T08:24:57;14.30;99.90
678;DHT22;321;48.814;9.132;2023-04-08T08:27:23;14.20;99.90
678;DHT22;321;48.814;9.132;2023-04-08T08:29:49;14.20;99.90
678;DHT22;321;48.814;9.132;2023-04-08T08:32:15;14.30;99.90
678;DHT22;321;48.814;9.132;2023-04-08T08:34:41;14.50;99.90
678;DHT22;321;48.814;9.132;2023-04-08T08:37:07;14.70;99.90
678;DHT22;321;48.814;9.132;2023-04-08T08:39:32;14.60;99.90
678;DHT22;321;48.814;9.132;2023-04-08T08:41:58;14.50;99.90
678;DHT22;321;48.814;9.132;2023-04-08T08:44:24;14.40;99.90
678;DHT22;321;48.814;9.132;2023-04-08T08:46:50;14.60;99.90
678;DHT22;321;48.814;9.132;2023-04-08T08:49:15;14.70;99.90
678;DHT22;321;48.814;9.132;2023-04-08T08:51:42;15.10;99.90
678;DHT22;321;48.814;9.132;2023-04-08T08:54:09;15.40;99.90
678;DHT22;321;48.814;9.132;2023-04-08T08:56:35;15.70;99.90
678;DHT22;321;48.814;9.132;2023-04-08T08:59:01;16.00;99.90
678;DHT22;321;48.814;9.132;2023-04-08T09:01:44;16.40;98.90
678;DHT22;321;48.814;9.132;2023-04-08T09:06:38;16.70;98.20
678;DHT22;321;48.814;9.132;2023-04-08T09:09:04;16.90;97.50
678;DHT22;321;48.814;9.132;2023-04-08T09:11:37;16.90;97.60
678;DHT22;321;48.814;9.132;2023-04-08T09:14:04;17.10;97.50
678;DHT22;321;48.814;9.132;2023-04-08T09:16:31;17.40;96.60
678;DHT22;321;48.814;9.132;2023-04-08T09:19:08;17.70;97.20
678;DHT22;321;48.814;9.132;2023-04-08T09:21:37;17.80;96.00
678;DHT22;321;48.814;9.132;2023-04-08T09:24:03;17.90;94.50
678;DHT22;321;48.814;9.132;2023-04-08T09:26:28;17.90;94.90
678;DHT22;321;48.814;9.132;2023-04-08T09:29:03;18.00;95.50
678;DHT22;321;48.814;9.132;2023-04-08T09:31:31;17.90;95.40
678;DHT22;321;48.814;9.132;2023-04-08T09:33:58;18.00;94.10
678;DHT22;321;48.814;9.132;2023-04-08T09:36:25;17.70;91.90
678;DHT22;321;48.814;9.132;2023-04-08T09:38:52;17.80;93.80
678;DHT22;321;48.814;9.132;2023-04-08T09:41:18;18.00;93.30
678;DHT22;321;48.814;9.132;2023-04-08T09:43:49;18.10;94.40
678;DHT22;321;48.814;9.132;2023-04-08T09:46:18;18.30;94.10
678;DHT22;321;48.814;9.132;2023-04-08T09:49:00;18.20;93.30
678;DHT22;321;48.814;9.132;2023-04-08T09:51:31;17.90;92.30
678;DHT22;321;48.814;9.132;2023-04-08T09:54:02;17.70;90.10
678;DHT22;321;48.814;9.132;2023-04-08T09:56:38;17.50;90.00
678;DHT22;321;48.814;9.132;2023-04-08T09:59:12;17.40;91.10
678;DHT22;321;48.814;9.132;2023-04-08T10:01:43;17.00;88.10
678;DHT22;321;48.814;9.132;2023-04-08T10:04:14;17.70;92.30
678;DHT22;321;48.814;9.132;2023-04-08T10:06:41;18.60;91.60
678;DHT22;321;48.814;9.132;2023-04-08T10:09:08;19.30;87.80
678;DHT22;321;48.814;9.132;2023-04-08T10:11:34;19.50;86.50
678;DHT22;321;48.814;9.132;2023-04-08T10:14:01;19.20;82.70
678;DHT22;321;48.814;9.132;2023-04-08T10:16:27;18.90;82.70
678;DHT22;321;48.814;9.132;2023-04-08T10:18:54;19.00;82.40
678;DHT22;321;48.814;9.132;2023-04-08T10:21:31;19.20;86.40
678;DHT22;321;48.814;9.132;2023-04-08T10:23:57;19.40;84.40
678;DHT22;321;48.814;9.132;2023-04-08T10:26:41;18.80;76.70
678;DHT22;321;48.814;9.132;2023-04-08T10:31:42;18.30;86.70
678;DHT22;321;48.814;9.132;2023-04-08T10:34:15;17.90;77.90
678;DHT22;321;48.814;9.132;2023-04-08T10:36:42;17.60;78.00
678;DHT22;321;48.814;9.132;2023-04-08T10:39:07;17.20;80.70
678;DHT22;321;48.814;9.132;2023-04-08T10:41:33;16.70;80.10
678;DHT22;321;48.814;9.132;2023-04-08T10:43:58;16.50;81.50
678;DHT22;321;48.814;9.132;2023-04-08T10:46:27;15.90;85.60
678;DHT22;321;48.814;9.132;2023-04-08T10:48:59;15.90;88.60
678;DHT22;321;48.814;9.132;2023-04-08T10:51:31;15.60;88.10
678;DHT22;321;48.814;9.132;2023-04-08T10:54:05;15.40;91.20
678;DHT22;321;48.814;9.132;2023-04-08T10:56:31;15.30;91.60
678;DHT22;321;48.814;9.132;2023-04-08T10:58:57;15.30;91.40
678;DHT22;321;48.814;9.132;2023-04-08T11:01:25;15.20;91.80
678;DHT22;321;48.814;9.132;2023-04-08T11:03:52;15.10;90.70
678;DHT22;321;48.814;9.132;2023-04-08T11:06:17;15.00;90.20
678;DHT22;321;48.814;9.132;2023-04-08T11:08:44;15.00;91.50
678;DHT22;321;48.814;9.132;2023-04-08T11:11:10;15.00;92.40
678;DHT22;321;48.814;9.132;2023-04-08T11:13:38;14.90;92.30
678;DHT22;321;48.814;9.132;2023-04-08T11:16:05;14.90;92.10
678;DHT22;321;48.814;9.132;2023-04-08T11:18:33;14.80;91.80
678;DHT22;321;48.814;9.132;2023-04-08T11:20:59;14.70;90.70
678;DHT22;321;48.814;9.132;2023-04-08T11:23:26;14.60;91.50
678;DHT22;321;48.814;9.132;2023-04-08T11:25:52;14.70;93.00
678;DHT22;321;48.814;9.132;2023-04-08T11:28:19;14.90;93.10
678;DHT22;321;48.814;9.132;2023-04-08T11:30:45;14.70;91.00
678;DHT22;321;48.814;9.132;2023-04-08T11:33:12;14.40;90.00
678;DHT22;321;48.814;9.132;2023-04-08T11:35:42;14.50;91.20
678;DHT22;321;48.814;9.132;2023-04-08T11:38:09;14.50;92.10
678;DHT22;321;48.814;9.132;2023-04-08T11:40:34;14.70;91.00
678;DHT22;321;48.814;9.132;2023-04-08T11:43:08;14.60;90.60
678;DHT22;321;48.814;9.132;2023-04-08T11:45:37;14.00;88.20
678;DHT22;321;48.814;9.132;2023-04-08T11:48:11;14.10;91.70
678;DHT22;321;48.814;9.132;2023-04-08T11:50:40;13.70;89.50
678;DHT22;321;48.814;9.132;2023-04-08T11:53:24;13.50;90.80
678;DHT22;321;48.814;9.132;2023-04-08T11:55:50;13.90;92.10
678;DHT22;321;48.814;9.132;2023-04-08T11:58:16;14.20;92.40
678;DHT22;321;48.814;9.132;2023-04-08T12:00:42;14.00;91.00
678;DHT22;321;48.814;9.132;2023-04-08T12:03:10;13.90;90.40
678;DHT22;321;48.814;9.132;2023-04-08T12:05:35;13.10;91.00
678;DHT22;321;48.814;9.132;2023-04-08T12:08:01;13.50;93.60
678;DHT22;321;48.814;9.132;2023-04-08T12:10:27;13.60;91.30
678;DHT22;321;48.814;9.132;2023-04-08T12:12:53;13.70;92.40
678;DHT22;321;48.814;9.132;2023-04-08T12:15:19;13.90;92.30
678;DHT22;321;48.814;9.132;2023-04-08T12:17:44;13.80;93.00
678;DHT22;321;48.814;9.132;2023-04-08T12:20:12;13.90;92.10
678;DHT22;321;48.814;9.132;2023-04-08T12:22:38;14.10;92.30
678;DHT22;321;48.814;9.132;2023-04-08T12:25:04;14.20;93.90
678;DHT22;321;48.814;9.132;2023-04-08T12:27:30;14.10;92.70
678;DHT22;321;48.814;9.132;2023-04-08T12:29:58;14.10;92.50
678;DHT22;321;48.814;9.132;2023-04-08T12:32:23;14.10;91.60
678;DHT22;321;48.814;9.132;2023-04-08T12:34:50;14.20;92.60
678;DHT22;321;48.814;9.132;2023-04-08T12:37:15;14.20;91.30
678;DHT22;321;48.814;9.132;2023-04-08T12:39:41;14.20;92.60
678;DHT22;321;48.814;9.132;2023-04-08T12:42:07;13.90;90.90
678;DHT22;321;48.814;9.132;2023-04-08T12:44:32;13.90;92.50
678;DHT22;321;48.814;9.132;2023-04-08T12:46:58;14.00;93.20
678;DHT22;321;48.814;9.132;2023-04-08T12:49:24;14.20;92.20
678;DHT22;321;48.814;9.132;2023-04-08T12:51:50;13.80;91.00
678;DHT22;321;48.814;9.132;2023-04-08T12:54:16;13.40;91.00
678;DHT22;321;48.814;9.132;2023-04-08T12:56:42;13.60;92.80
678;DHT22;321;48.814;9.132;2023-04-08T12:59:08;13.70;92.60
678;DHT22;321;48.814;9.132;2023-04-08T13:01:34;13.80;92.10
678;DHT22;321;48.814;9.132;2023-04-08T13:04:00;13.90;93.40
678;DHT22;321;48.814;9.132;2023-04-08T13:06:25;14.00;91.60
678;DHT22;321;48.814;9.132;2023-04-08T13:08:52;14.00;92.20
678;DHT22;321;48.814;9.132;2023-04-08T13:11:17;13.90;92.70
678;DHT22;321;48.814;9.132;2023-04-08T13:13:43;14.00;94.20
678;DHT22;321;48.814;9.132;2023-04-08T13:16:11;14.20;93.70
678;DHT22;321;48.814;9.132;2023-04-08T13:18:38;14.10;94.10
678;DHT22;321;48.814;9.132;2023-04-08T13:21:08;14.20;93.60
678;DHT22;321;48.814;9.132;2023-04-08T13:23:34;14.30;92.90
678;DHT22;321;48.814;9.132;2023-04-08T13:26:00;14.30;93.80
678;DHT22;321;48.814;9.132;2023-04-08T13:28:26;14.30;93.30
678;DHT22;321;48.814;9.132;2023-04-08T13:30:51;14.50;92.00
678;DHT22;321;48.814;9.132;2023-04-08T13:33:18;14.30;92.10
678;DHT22;321;48.814;9.132;2023-04-08T13:35:43;14.50;93.10
678;DHT22;321;48.814;9.132;2023-04-08T13:38:09;14.30;91.90
678;DHT22;321;48.814;9.132;2023-04-08T13:40:35;14.30;92.30
678;DHT22;321;48.814;9.132;2023-04-08T13:43:01;14.40;92.20
678;DHT22;321;48.814;9.132;2023-04-08T13:45:26;14.50;92.80
678;DHT22;321;48.814;9.132;2023-04-08T13:47:52;13.90;91.50
678;DHT22;321;48.814;9.132;2023-04-08T13:50:17;13.90;93.00
678;DHT22;321;48.814;9.132;2023-04-08T13:52:43;14.00;93.20
678;DHT22;321;48.814;9.132;2023-04-08T13:55:08;13.90;92.20
678;DHT22;321;48.814;9.132;2023-04-08T13:57:34;13.90;92.60
678;DHT22;321;48.814;9.132;2023-04-08T14:00:00;13.90;92.60
678;DHT22;321;48.814;9.132;2023-04-08T14:02:25;14.00;93.40
678;DHT22;321;48.814;9.132;2023-04-08T14:04:51;14.10;93.60
678;DHT22;321;48.814;9.132;2023-04-08T14:07:16;14.30;93.20
678;DHT22;321;48.814;9.132;2023-04-08T14:09:43;14.50;94.10
678;DHT22;321;48.814;9.132;2023-04-08T14:12:08;14.70;94.60
678;DHT22;321;48.814;9.132;2023-04-08T14:14:34;14.60;92.50
678;DHT22;321;48.814;9.132;2023-04-08T14:17:00;14.70;93.20
678;DHT22;321;48.814;9.132;2023-04-08T14:19:26;14.90;93.00
678;DHT22;321;48.814;9.132;2023-04-08T14:21:51;15.10;93.10
678;DHT22;321;48.814;9.132;2023-04-08T14:24:17;15.20;92.30
678;DHT22;321;48.814;9.132;2023-04-08T14:26:42;15.40;92.40
678;DHT22;321;48.814;9.132;2023-04-08T14:29:08;15.30;93.20
678;DHT22;321;48.814;9.132;2023-04-08T14:31:34;15.30;92.90
678;DHT22;321;48.814;9.132;2023-04-08T14:34:00;15.20;92.50
678;DHT22;321;48.814;9.132;2023-04-08T14:36:26;15.10;91.60
678;DHT22;321;48.814;9.132;2023-04-08T14:38:53;15.20;92.70
678;DHT22;321;48.814;9.132;2023-04-08T14:41:19;15.20;92.80
678;DHT22;321;48.814;9.132;2023-04-08T14:43:45;15.20;92.30
678;DHT22;321;48.814;9.132;2023-04-08T14:46:11;15.20;92.10
678;DHT22;321;48.814;9.132;2023-04-08T14:48:37;15.20;92.80
678;DHT22;321;48.814;9.132;2023-04-08T14:51:02;15.10;93.00
678;DHT22;321;48.814;9.132;2023-04-08T14:53:28;15.10;93.10
678;DHT22;321;48.814;9.132;2023-04-08T14:55:54;15.00;92.20
678;DHT22;321;48.814;9.132;2023-04-08T14:58:19;15.00;92.90
678;DHT22;321;48.814;9.132;2023-04-08T15:00:45;14.90;91.20
678;DHT22;321;48.814;9.132;2023-04-08T15:03:15;14.80;92.40
678;DHT22;321;48.814;9.132;2023-04-08T15:05:41;14.80;93.90
678;DHT22;321;48.814;9.132;2023-04-08T15:08:07;14.70;92.00
678;DHT22;321;48.814;9.132;2023-04-08T15:10:33;14.50;92.10
678;DHT22;321;48.814;9.132;2023-04-08T15:12:58;14.40;92.10
678;DHT22;321;48.814;9.132;2023-04-08T15:15:24;14.40;92.60
678;DHT22;321;48.814;9.132;2023-04-08T15:17:50;14.40;92.80
678;DHT22;321;48.814;9.132;2023-04-08T15:20:15;14.50;93.00
678;DHT22;321;48.814;9.132;2023-04-08T15:22:43;14.50;93.60
678;DHT22;321;48.814;9.132;2023-04-08T15:25:09;14.50;92.10
678;DHT22;321;48.814;9.132;2023-04-08T15:27:35;14.30;91.70
678;DHT22;321;48.814;9.132;2023-04-08T15:30:01;13.80;91.90
678;DHT22;321;48.814;9.132;2023-04-08T15:32:26;13.90;93.60
678;DHT22;321;48.814;9.132;2023-04-08T15:34:52;13.90;94.60
678;DHT22;321;48.814;9.132;2023-04-08T15:37:17;13.90;93.90
678;DHT22;321;48.814;9.132;2023-04-08T15:39:43;13.90;93.70
678;DHT22;321;48.814;9.132;2023-04-08T15:42:10;14.00;93.50
678;DHT22;321;48.814;9.132;2023-04-08T15:44:35;13.90;93.60
678;DHT22;321;48.814;9.132;2023-04-08T15:47:01;13.60;92.90
678;DHT22;321;48.814;9.132;2023-04-08T15:49:27;13.30;93.00
678;DHT22;321;48.814;9.132;2023-04-08T15:51:52;13.40;93.00
678;DHT22;321;48.814;9.132;2023-04-08T15:54:18;13.00;93.00
678;DHT22;321;48.814;9.132;2023-04-08T15:56:45;13.00;94.50
678;DHT22;321;48.814;9.132;2023-04-08T15:59:11;13.10;94.00
678;DHT22;321;48.814;9.132;2023-04-08T16:01:37;13.00;94.10
678;DHT22;321;48.814;9.132;2023-04-08T16:04:03;12.90;93.70
678;DHT22;321;48.814;9.132;2023-04-08T16:06:28;12.60;94.80
678;DHT22;321;48.814;9.132;2023-04-08T16:08:54;12.70;95.00
678;DHT22;321;48.814;9.132;2023-04-08T16:11:21;12.80;95.30
678;DHT22;321;48.814;9.132;2023-04-08T16:13:46;12.50;94.70
678;DHT22;321;48.814;9.132;2023-04-08T16:16:12;12.30;95.30
678;DHT22;321;48.814;9.132;2023-04-08T16:18:38;12.20;95.50
678;DHT22;321;48.814;9.132;2023-04-08T16:21:05;12.30;96.40
678;DHT22;321;48.814;9.132;2023-04-08T16:23:32;12.50;95.70
678;DHT22;321;48.814;9.132;2023-04-08T16:25:58;12.70;95.80
678;DHT22;321;48.814;9.132;2023-04-08T16:28:24;12.50;95.90
678;DHT22;321;48.814;9.132;2023-04-08T16:30:52;12.60;96.00
678;DHT22;321;48.814;9.132;2023-04-08T16:33:18;12.70;95.80
678;DHT22;321;48.814;9.132;2023-04-08T16:35:43;12.70;95.50
678;DHT22;321;48.814;9.132;2023-04-08T16:38:09;12.60;95.20
678;DHT22;321;48.814;9.132;2023-04-08T16:40:35;12.30;95.90
678;DHT22;321;48.814;9.132;2023-04-08T16:43:01;12.10;96.00
678;DHT22;321;48.814;9.132;2023-04-08T16:45:29;11.80;96.50
678;DHT22;321;48.814;9.132;2023-04-08T16:47:55;11.80;97.20